sensor_id;sensor_type;location;lat;lon;timestamp;temperature;humidity
46340;DHT22;47273;49.274;8.708;2022-08-21T04:03:03;14.40;96.00
46340;DHT22;47273;49.274;8.708;2022-08-21T04:05:28;14.50;96.10
46340;DHT22;47273;49.274;8.708;2022-08-21T04:08:01;14.50;96.10
46340;DHT22;47273;49.274;8.708;2022-08-21T04:10:29;14.50;96.20
46340;DHT22;47273;49.274;8.708;2022-08-21T04:12:55;14.40;96.30
46340;DHT22;47273;49.274;8.708;2022-08-21T04:15:22;14.40;96.70
46340;DHT22;47273;49.274;8.708;2022-08-21T04:17:48;14.30;96.70
46340;DHT22;47273;49.274;8.708;2022-08-21T04:20:16;14.30;97.10
46340;DHT22;47273;49.274;8.708;2022-08-21T04:22:45;14.30;97.00
46340;DHT22;47273;49.274;8.708;2022-08-21T04:25:13;14.40;96.70
46340;DHT22;47273;49.274;8.708;2022-08-21T04:27:38;14.40;97.10
46340;DHT22;47273;49.274;8.708;2022-08-21T04:30:06;14.30;97.30
46340;DHT22;47273;49.274;8.708;2022-08-21T04:32:32;14.30;97.40
46340;DHT22;47273;49.274;8.708;2022-08-21T04:35:03;14.30;97.60
46340;DHT22;47273;49.274;8.708;2022-08-21T04:37:29;14.30;98.20
46340;DHT22;47273;49.274;8.708;2022-08-21T04:39:55;14.20;98.20
46340;DHT22;47273;49.274;8.708;2022-08-21T04:42:26;14.20;98.50
46340;DHT22;47273;49.274;8.708;2022-08-21T04:44:53;14.20;98.30
46340;DHT22;47273;49.274;8.708;2022-08-21T04:47:18;14.30;98.60
46340;DHT22;47273;49.274;8.708;2022-08-21T04:49:44;14.30;98.30
46340;DHT22;47273;49.274;8.708;2022-08-21T04:52:11;14.20;99.30
46340;DHT22;47273;49.274;8.708;2022-08-21T04:54:38;14.20;99.00
46340;DHT22;47273;49.274;8.708;2022-08-21T04:57:07;14.20;99.10
46340;DHT22;47273;49.274;8.708;2022-08-21T04:59:43;14.30;99.10
46340;DHT22;47273;49.274;8.708;2022-08-21T05:02:10;14.40;99.00
46340;DHT22;47273;49.274;8.708;2022-08-21T05:04:43;14.30;98.70
46340;DHT22;47273;49.274;8.708;2022-08-21T05:07:14;14.50;98.40
46340;DHT22;47273;49.274;8.708;2022-08-21T05:09:43;14.50;98.10
46340;DHT22;47273;49.274;8.708;2022-08-21T05:12:09;14.60;97.90
46340;DHT22;47273;49.274;8.708;2022-08-21T05:14:36;14.60;97.80
46340;DHT22;47273;49.274;8.708;2022-08-21T05:17:02;14.70;98.00
46340;DHT22;47273;49.274;8.708;2022-08-21T05:19:27;14.80;98.00
46340;DHT22;47273;49.274;8.708;2022-08-21T05:21:53;14.80;98.40
46340;DHT22;47273;49.274;8.708;2022-08-21T05:24:19;14.90;97.60
46340;DHT22;47273;49.274;8.708;2022-08-21T05:26:44;15.00;97.10
46340;DHT22;47273;49.274;8.708;2022-08-21T05:29:11;15.00;97.00
46340;DHT22;47273;49.274;8.708;2022-08-21T05:31:38;15.10;96.90
46340;DHT22;47273;49.274;8.708;2022-08-21T05:34:04;15.10;96.70
46340;DHT22;47273;49.274;8.708;2022-08-21T05:36:32;15.20;96.30
46340;DHT22;47273;49.274;8.708;2022-08-21T05:38:58;15.20;96.10
46340;DHT22;47273;49.274;8.708;2022-08-21T05:41:24;15.30;95.90
46340;DHT22;47273;49.274;8.708;2022-08-21T05:43:49;15.40;96.50
46340;DHT22;47273;49.274;8.708;2022-08-21T05:46:15;15.40;96.50
46340;DHT22;47273;49.274;8.708;2022-08-21T05:48:41;15.50;96.20
46340;DHT22;47273;49.274;8.708;2022-08-21T05:51:10;15.60;95.80
46340;DHT22;47273;49.274;8.708;2022-08-21T05:53:37;15.70;95.80
46340;DHT22;47273;49.274;8.708;2022-08-21T05:56:03;15.70;95.80
46340;DHT22;47273;49.274;8.708;2022-08-21T05:58:31;15.70;95.70
46340;DHT22;47273;49.274;8.708;2022-08-21T06:00:57;15.70;95.60
46340;DHT22;47273;49.274;8.708;2022-08-21T06:03:26;15.80;95.40
46340;DHT22;47273;49.274;8.708;2022-08-21T06:05:53;16.00;95.50
46340;DHT22;47273;49.274;8.708;2022-08-21T06:08:19;16.00;94.90
46340;DHT22;47273;49.274;8.708;2022-08-21T06:10:46;16.10;95.10
46340;DHT22;47273;49.274;8.708;2022-08-21T06:13:13;16.20;95.20
46340;DHT22;47273;49.274;8.708;2022-08-21T06:15:39;16.30;95.10
46340;DHT22;47273;49.274;8.708;2022-08-21T06:18:05;16.40;95.00
46340;DHT22;47273;49.274;8.708;2022-08-21T06:20:31;16.50;94.70
46340;DHT22;47273;49.274;8.708;2022-08-21T06:22:57;16.70;94.10
46340;DHT22;47273;49.274;8.708;2022-08-21T06:25:24;16.80;93.60
46340;DHT22;47273;49.274;8.708;2022-08-21T06:27:50;16.90;93.40
46340;DHT22;47273;49.274;8.708;2022-08-21T06:30:17;17.00;92.90
46340;DHT22;47273;49.274;8.708;2022-08-21T06:32:42;17.10;92.80
46340;DHT22;47273;49.274;8.708;2022-08-21T06:35:08;17.20;92.70
46340;DHT22;47273;49.274;8.708;2022-08-21T06:37:34;17.40;92.60
46340;DHT22;47273;49.274;8.708;2022-08-21T06:40:00;17.40;91.80
46340;DHT22;47273;49.274;8.708;2022-08-21T06:42:25;17.50;92.30
46340;DHT22;47273;49.274;8.708;2022-08-21T06:44:53;17.60;92.10
46340;DHT22;47273;49.274;8.708;2022-08-21T06:47:19;17.70;92.30
46340;DHT22;47273;49.274;8.708;2022-08-21T06:49:45;17.90;91.60
46340;DHT22;47273;49.274;8.708;2022-08-21T06:52:12;18.00;92.00
46340;DHT22;47273;49.274;8.708;2022-08-21T06:54:39;18.10;91.10
46340;DHT22;47273;49.274;8.708;2022-08-21T06:57:05;18.20;91.30
46340;DHT22;47273;49.274;8.708;2022-08-21T06:59:31;18.30;90.60
46340;DHT22;47273;49.274;8.708;2022-08-21T07:01:58;18.50;90.50
46340;DHT22;47273;49.274;8.708;2022-08-21T07:04:24;18.60;90.50
46340;DHT22;47273;49.274;8.708;2022-08-21T07:06:52;18.60;90.10
46340;DHT22;47273;49.274;8.708;2022-08-21T07:09:21;18.70;90.30
46340;DHT22;47273;49.274;8.708;2022-08-21T07:11:52;18.80;89.80
46340;DHT22;47273;49.274;8.708;2022-08-21T07:14:18;18.90;89.20
46340;DHT22;47273;49.274;8.708;2022-08-21T07:16:44;19.10;87.90
46340;DHT22;47273;49.274;8.708;2022-08-21T07:19:10;19.20;88.60
46340;DHT22;47273;49.274;8.708;2022-08-21T07:21:36;19.20;87.00
46340;DHT22;47273;49.274;8.708;2022-08-21T07:24:02;19.40;86.40
46340;DHT22;47273;49.274;8.708;2022-08-21T07:26:31;19.40;85.20
46340;DHT22;47273;49.274;8.708;2022-08-21T07:28:57;19.50;85.00
46340;DHT22;47273;49.274;8.708;2022-08-21T07:31:24;19.60;84.50
46340;DHT22;47273;49.274;8.708;2022-08-21T07:33:50;19.60;83.40
46340;DHT22;47273;49.274;8.708;2022-08-21T07:36:16;19.80;83.30
46340;DHT22;47273;49.274;8.708;2022-08-21T07:38:42;20.00;82.60
46340;DHT22;47273;49.274;8.708;2022-08-21T07:41:26;20.00;80.70
46340;DHT22;47273;49.274;8.708;2022-08-21T07:43:54;20.20;81.20
46340;DHT22;47273;49.274;8.708;2022-08-21T07:46:20;20.30;80.00
46340;DHT22;47273;49.274;8.708;2022-08-21T07:48:49;20.50;79.60
46340;DHT22;47273;49.274;8.708;2022-08-21T07:51:18;20.60;78.30
46340;DHT22;47273;49.274;8.708;2022-08-21T07:53:49;20.80;77.00
46340;DHT22;47273;49.274;8.708;2022-08-21T07:56:19;20.80;76.50
46340;DHT22;47273;49.274;8.708;2022-08-21T07:58:46;20.90;75.60
46340;DHT22;47273;49.274;8.708;2022-08-21T08:01:12;21.00;76.30
46340;DHT22;47273;49.274;8.708;2022-08-21T08:03:37;21.10;76.50
46340;DHT22;47273;49.274;8.708;2022-08-21T08:06:04;21.30;76.20
46340;DHT22;47273;49.274;8.708;2022-08-21T08:08:32;21.50;75.40
46340;DHT22;47273;49.274;8.708;2022-08-21T08:10:58;21.60;75.20
46340;DHT22;47273;49.274;8.708;2022-08-21T08:13:25;21.70;74.20
46340;DHT22;47273;49.274;8.708;2022-08-21T08:15:51;21.90;73.80
46340;DHT22;47273;49.274;8.708;2022-08-21T08:18:16;22.00;74.30
46340;DHT22;47273;49.274;8.708;2022-08-21T08:20:42;22.20;73.80
46340;DHT22;47273;49.274;8.708;2022-08-21T08:23:15;21.90;71.20
46340;DHT22;47273;49.274;8.708;2022-08-21T08:25:41;22.00;72.70
46340;DHT22;47273;49.274;8.708;2022-08-21T08:28:07;22.30;72.20
46340;DHT22;47273;49.274;8.708;2022-08-21T08:30:45;22.50;72.50
46340;DHT22;47273;49.274;8.708;2022-08-21T08:33:11;22.70;72.40
46340;DHT22;47273;49.274;8.708;2022-08-21T08:35:37;22.80;72.00
46340;DHT22;47273;49.274;8.708;2022-08-21T08:38:03;23.00;71.50
46340;DHT22;47273;49.274;8.708;2022-08-21T08:40:36;23.00;70.70
46340;DHT22;47273;49.274;8.708;2022-08-21T08:43:03;23.20;71.30
46340;DHT22;47273;49.274;8.708;2022-08-21T08:45:33;23.30;68.30
46340;DHT22;47273;49.274;8.708;2022-08-21T08:48:05;23.30;68.80
46340;DHT22;47273;49.274;8.708;2022-08-21T08:50:49;23.40;69.00
46340;DHT22;47273;49.274;8.708;2022-08-21T08:53:19;23.70;68.00
46340;DHT22;47273;49.274;8.708;2022-08-21T08:55:46;23.80;69.40
46340;DHT22;47273;49.274;8.708;2022-08-21T08:58:20;24.00;68.80
46340;DHT22;47273;49.274;8.708;2022-08-21T09:00:49;24.10;66.40
46340;DHT22;47273;49.274;8.708;2022-08-21T09:03:15;24.20;67.70
46340;DHT22;47273;49.274;8.708;2022-08-21T09:05:50;24.40;67.20
46340;DHT22;47273;49.274;8.708;2022-08-21T09:11:38;24.60;66.50
46340;DHT22;47273;49.274;8.708;2022-08-21T09:16:47;24.80;65.00
46340;DHT22;47273;49.274;8.708;2022-08-21T09:19:38;24.90;64.30
46340;DHT22;47273;49.274;8.708;2022-08-21T09:27:26;25.30;62.40
46340;DHT22;47273;49.274;8.708;2022-08-21T09:29:54;25.50;62.20
46340;DHT22;47273;49.274;8.708;2022-08-21T09:32:28;25.60;62.70
46340;DHT22;47273;49.274;8.708;2022-08-21T09:35:07;25.60;58.00
46340;DHT22;47273;49.274;8.708;2022-08-21T09:37:44;25.70;60.50
46340;DHT22;47273;49.274;8.708;2022-08-21T09:40:31;25.90;60.60
46340;DHT22;47273;49.274;8.708;2022-08-21T09:43:21;26.20;58.20
46340;DHT22;47273;49.274;8.708;2022-08-21T09:45:49;26.30;59.90
46340;DHT22;47273;49.274;8.708;2022-08-21T09:48:25;26.50;58.50
46340;DHT22;47273;49.274;8.708;2022-08-21T09:50:52;26.50;57.90
46340;DHT22;47273;49.274;8.708;2022-08-21T09:53:28;26.70;55.40
46340;DHT22;47273;49.274;8.708;2022-08-21T09:56:14;26.90;55.70
46340;DHT22;47273;49.274;8.708;2022-08-21T09:58:59;27.10;56.30
46340;DHT22;47273;49.274;8.708;2022-08-21T10:01:32;27.20;55.70
46340;DHT22;47273;49.274;8.708;2022-08-21T10:04:10;27.30;56.80
46340;DHT22;47273;49.274;8.708;2022-08-21T10:06:36;27.40;54.30
46340;DHT22;47273;49.274;8.708;2022-08-21T10:09:14;27.40;55.40
46340;DHT22;47273;49.274;8.708;2022-08-21T10:11:55;27.50;55.30
46340;DHT22;47273;49.274;8.708;2022-08-21T10:14:39;27.60;52.80
46340;DHT22;47273;49.274;8.708;2022-08-21T10:20:04;28.10;55.10
46340;DHT22;47273;49.274;8.708;2022-08-21T10:23:07;28.30;52.30
46340;DHT22;47273;49.274;8.708;2022-08-21T10:25:42;28.40;53.50
46340;DHT22;47273;49.274;8.708;2022-08-21T10:31:54;28.40;50.20
46340;DHT22;47273;49.274;8.708;2022-08-21T10:34:33;28.40;52.40
46340;DHT22;47273;49.274;8.708;2022-08-21T10:40:15;28.70;52.60
46340;DHT22;47273;49.274;8.708;2022-08-21T10:43:10;28.90;51.00
46340;DHT22;47273;49.274;8.708;2022-08-21T10:45:57;29.10;51.20
46340;DHT22;47273;49.274;8.708;2022-08-21T10:48:38;29.20;50.80
46340;DHT22;47273;49.274;8.708;2022-08-21T10:54:35;29.60;50.60
46340;DHT22;47273;49.274;8.708;2022-08-21T10:57:09;29.50;50.50
46340;DHT22;47273;49.274;8.708;2022-08-21T10:59:44;29.90;51.30
46340;DHT22;47273;49.274;8.708;2022-08-21T11:04:56;30.20;48.80
46340;DHT22;47273;49.274;8.708;2022-08-21T11:07:34;30.40;50.00
46340;DHT22;47273;49.274;8.708;2022-08-21T11:10:12;31.00;49.00
46340;DHT22;47273;49.274;8.708;2022-08-21T11:12:40;31.10;47.90
46340;DHT22;47273;49.274;8.708;2022-08-21T11:15:21;31.40;47.40
46340;DHT22;47273;49.274;8.708;2022-08-21T11:23:08;31.70;46.70
46340;DHT22;47273;49.274;8.708;2022-08-21T11:25:41;31.90;47.00
46340;DHT22;47273;49.274;8.708;2022-08-21T11:28:26;32.10;45.80
46340;DHT22;47273;49.274;8.708;2022-08-21T11:39:12;32.30;45.20
46340;DHT22;47273;49.274;8.708;2022-08-21T11:41:46;32.50;44.60
46340;DHT22;47273;49.274;8.708;2022-08-21T11:44:34;32.80;43.00
46340;DHT22;47273;49.274;8.708;2022-08-21T11:47:48;33.40;42.70
46340;DHT22;47273;49.274;8.708;2022-08-21T11:50:22;33.90;43.40
46340;DHT22;47273;49.274;8.708;2022-08-21T11:55:52;34.60;40.60
46340;DHT22;47273;49.274;8.708;2022-08-21T11:59:11;34.90;40.80
46340;DHT22;47273;49.274;8.708;2022-08-21T12:01:18;35.10;39.40
46340;DHT22;47273;49.274;8.708;2022-08-21T12:04:03;35.30;39.20
46340;DHT22;47273;49.274;8.708;2022-08-21T12:06:33;35.40;39.10
46340;DHT22;47273;49.274;8.708;2022-08-21T12:09:08;35.80;40.30
46340;DHT22;47273;49.274;8.708;2022-08-21T12:11:50;35.90;39.20
46340;DHT22;47273;49.274;8.708;2022-08-21T12:14:18;36.20;38.50
46340;DHT22;47273;49.274;8.708;2022-08-21T12:16:48;36.10;38.10
46340;DHT22;47273;49.274;8.708;2022-08-21T12:19:30;36.50;37.90
46340;DHT22;47273;49.274;8.708;2022-08-21T12:24:35;36.60;36.40
46340;DHT22;47273;49.274;8.708;2022-08-21T12:29:48;37.10;36.50
46340;DHT22;47273;49.274;8.708;2022-08-21T12:37:24;38.20;34.50
46340;DHT22;47273;49.274;8.708;2022-08-21T12:39:52;38.60;33.90
46340;DHT22;47273;49.274;8.708;2022-08-21T12:42:28;39.40;33.90
46340;DHT22;47273;49.274;8.708;2022-08-21T12:45:03;39.20;33.70
46340;DHT22;47273;49.274;8.708;2022-08-21T12:47:36;38.40;33.60
46340;DHT22;47273;49.274;8.708;2022-08-21T12:50:15;37.50;34.80
46340;DHT22;47273;49.274;8.708;2022-08-21T12:55:53;35.00;36.60
46340;DHT22;47273;49.274;8.708;2022-08-21T12:58:25;34.60;36.70
46340;DHT22;47273;49.274;8.708;2022-08-21T13:00:53;34.80;34.60
46340;DHT22;47273;49.274;8.708;2022-08-21T13:03:21;36.80;33.70
46340;DHT22;47273;49.274;8.708;2022-08-21T13:05:47;38.10;33.30
46340;DHT22;47273;49.274;8.708;2022-08-21T13:08:13;38.10;34.00
46340;DHT22;47273;49.274;8.708;2022-08-21T13:10:41;37.50;33.10
46340;DHT22;47273;49.274;8.708;2022-08-21T13:13:12;36.60;32.90
46340;DHT22;47273;49.274;8.708;2022-08-21T13:15:40;36.20;33.70
46340;DHT22;47273;49.274;8.708;2022-08-21T13:18:07;37.50;32.10
46340;DHT22;47273;49.274;8.708;2022-08-21T13:20:36;38.60;30.80
46340;DHT22;47273;49.274;8.708;2022-08-21T13:23:06;39.30;30.80
46340;DHT22;47273;49.274;8.708;2022-08-21T13:25:38;40.30;30.60
46340;DHT22;47273;49.274;8.708;2022-08-21T13:28:09;40.50;30.00
46340;DHT22;47273;49.274;8.708;2022-08-21T13:30:52;39.90;30.00
46340;DHT22;47273;49.274;8.708;2022-08-21T13:33:22;39.20;31.40
46340;DHT22;47273;49.274;8.708;2022-08-21T13:38:34;36.70;33.20
46340;DHT22;47273;49.274;8.708;2022-08-21T13:41:29;35.90;33.90
46340;DHT22;47273;49.274;8.708;2022-08-21T13:44:17;35.40;34.60
46340;DHT22;47273;49.274;8.708;2022-08-21T13:46:43;35.60;33.20
46340;DHT22;47273;49.274;8.708;2022-08-21T13:49:10;35.80;33.10
46340;DHT22;47273;49.274;8.708;2022-08-21T13:51:39;35.90;34.40
46340;DHT22;47273;49.274;8.708;2022-08-21T13:54:20;35.70;35.00
46340;DHT22;47273;49.274;8.708;2022-08-21T13:56:47;35.20;35.30
46340;DHT22;47273;49.274;8.708;2022-08-21T13:59:31;34.70;35.00
46340;DHT22;47273;49.274;8.708;2022-08-21T14:02:10;34.80;35.70
46340;DHT22;47273;49.274;8.708;2022-08-21T14:04:57;35.00;35.80
46340;DHT22;47273;49.274;8.708;2022-08-21T14:07:34;35.20;35.80
46340;DHT22;47273;49.274;8.708;2022-08-21T14:10:27;35.40;34.90
46340;DHT22;47273;49.274;8.708;2022-08-21T14:12:55;35.20;35.60
46340;DHT22;47273;49.274;8.708;2022-08-21T14:15:29;35.40;35.40
46340;DHT22;47273;49.274;8.708;2022-08-21T14:18:17;35.40;34.50
46340;DHT22;47273;49.274;8.708;2022-08-21T14:20:44;35.00;35.00
46340;DHT22;47273;49.274;8.708;2022-08-21T14:23:10;34.60;35.40
46340;DHT22;47273;49.274;8.708;2022-08-21T14:25:45;34.60;35.50
46340;DHT22;47273;49.274;8.708;2022-08-21T14:28:34;34.70;35.00
46340;DHT22;47273;49.274;8.708;2022-08-21T14:31:17;34.90;35.20
46340;DHT22;47273;49.274;8.708;2022-08-21T14:33:44;34.70;34.70
46340;DHT22;47273;49.274;8.708;2022-08-21T14:36:10;34.80;34.60
46340;DHT22;47273;49.274;8.708;2022-08-21T14:38:38;35.00;34.50
46340;DHT22;47273;49.274;8.708;2022-08-21T14:41:15;34.90;34.60
46340;DHT22;47273;49.274;8.708;2022-08-21T14:43:49;34.50;33.40
46340;DHT22;47273;49.274;8.708;2022-08-21T14:46:26;34.60;34.60
46340;DHT22;47273;49.274;8.708;2022-08-21T14:48:53;34.30;34.80
46340;DHT22;47273;49.274;8.708;2022-08-21T14:51:18;34.10;34.50
46340;DHT22;47273;49.274;8.708;2022-08-21T14:53:44;33.90;33.20
46340;DHT22;47273;49.274;8.708;2022-08-21T14:56:11;33.80;33.10
46340;DHT22;47273;49.274;8.708;2022-08-21T14:58:44;33.70;32.30
46340;DHT22;47273;49.274;8.708;2022-08-21T15:01:13;33.60;33.90
46340;DHT22;47273;49.274;8.708;2022-08-21T15:03:39;33.70;34.50
46340;DHT22;47273;49.274;8.708;2022-08-21T15:06:06;33.50;33.70
46340;DHT22;47273;49.274;8.708;2022-08-21T15:08:32;33.50;34.50
46340;DHT22;47273;49.274;8.708;2022-08-21T15:11:00;33.50;33.80
46340;DHT22;47273;49.274;8.708;2022-08-21T15:13:27;33.30;31.70
46340;DHT22;47273;49.274;8.708;2022-08-21T15:15:53;33.20;32.10
46340;DHT22;47273;49.274;8.708;2022-08-21T15:18:22;33.10;32.10
46340;DHT22;47273;49.274;8.708;2022-08-21T15:20:48;32.90;32.80
46340;DHT22;47273;49.274;8.708;2022-08-21T15:23:14;32.80;33.60
46340;DHT22;47273;49.274;8.708;2022-08-21T15:25:45;32.80;34.10
46340;DHT22;47273;49.274;8.708;2022-08-21T15:28:12;32.90;34.60
46340;DHT22;47273;49.274;8.708;2022-08-21T15:30:40;32.70;33.60
46340;DHT22;47273;49.274;8.708;2022-08-21T15:33:09;32.30;33.50
46340;DHT22;47273;49.274;8.708;2022-08-21T15:35:35;31.90;34.50
46340;DHT22;47273;49.274;8.708;2022-08-21T15:38:01;31.00;34.40
46340;DHT22;47273;49.274;8.708;2022-08-21T15:40:28;31.10;34.90
46340;DHT22;47273;49.274;8.708;2022-08-21T15:42:59;31.10;35.10
46340;DHT22;47273;49.274;8.708;2022-08-21T15:45:25;31.10;35.50
46340;DHT22;47273;49.274;8.708;2022-08-21T15:47:51;30.90;34.30
46340;DHT22;47273;49.274;8.708;2022-08-21T15:50:17;31.00;34.50
46340;DHT22;47273;49.274;8.708;2022-08-21T15:52:43;31.10;35.50
46340;DHT22;47273;49.274;8.708;2022-08-21T15:55:10;31.20;35.60
46340;DHT22;47273;49.274;8.708;2022-08-21T15:57:43;31.60;34.70
46340;DHT22;47273;49.274;8.708;2022-08-21T16:00:19;32.00;34.20
46340;DHT22;47273;49.274;8.708;2022-08-21T16:02:49;31.90;34.30
46340;DHT22;47273;49.274;8.708;2022-08-21T16:05:16;31.60;35.10
46340;DHT22;47273;49.274;8.708;2022-08-21T16:07:43;32.00;34.20
46340;DHT22;47273;49.274;8.708;2022-08-21T16:10:09;32.40;33.10
46340;DHT22;47273;49.274;8.708;2022-08-21T16:12:40;32.30;34.00
46340;DHT22;47273;49.274;8.708;2022-08-21T16:15:09;31.60;34.50
46340;DHT22;47273;49.274;8.708;2022-08-21T16:17:36;31.10;35.70
46340;DHT22;47273;49.274;8.708;2022-08-21T16:20:08;30.80;36.00
46340;DHT22;47273;49.274;8.708;2022-08-21T16:22:34;30.70;36.70
46340;DHT22;47273;49.274;8.708;2022-08-21T16:25:01;30.70;35.80
46340;DHT22;47273;49.274;8.708;2022-08-21T16:27:26;30.50;36.70
46340;DHT22;47273;49.274;8.708;2022-08-21T16:29:52;30.60;37.90
46340;DHT22;47273;49.274;8.708;2022-08-21T16:32:18;30.70;37.70
46340;DHT22;47273;49.274;8.708;2022-08-21T16:34:46;30.60;38.10
46340;DHT22;47273;49.274;8.708;2022-08-21T16:37:14;30.60;38.30
46340;DHT22;47273;49.274;8.708;2022-08-21T16:39:40;30.60;38.00
46340;DHT22;47273;49.274;8.708;2022-08-21T16:42:07;30.40;38.30
46340;DHT22;47273;49.274;8.708;2022-08-21T16:44:35;30.20;38.30
46340;DHT22;47273;49.274;8.708;2022-08-21T16:47:00;30.00;38.20
46340;DHT22;47273;49.274;8.708;2022-08-21T16:49:26;29.90;39.80
46340;DHT22;47273;49.274;8.708;2022-08-21T16:51:52;29.80;39.60
46340;DHT22;47273;49.274;8.708;2022-08-21T16:54:18;29.60;39.30
46340;DHT22;47273;49.274;8.708;2022-08-21T16:56:47;29.50;39.80
46340;DHT22;47273;49.274;8.708;2022-08-21T16:59:15;29.30;40.20
46340;DHT22;47273;49.274;8.708;2022-08-21T17:01:44;29.30;40.60
46340;DHT22;47273;49.274;8.708;2022-08-21T17:04:13;29.10;40.40
46340;DHT22;47273;49.274;8.708;2022-08-21T17:06:39;28.90;40.80
46340;DHT22;47273;49.274;8.708;2022-08-21T17:09:08;28.90;42.20
46340;DHT22;47273;49.274;8.708;2022-08-21T17:11:37;28.60;42.00
46340;DHT22;47273;49.274;8.708;2022-08-21T17:14:16;28.50;42.70
46340;DHT22;47273;49.274;8.708;2022-08-21T17:16:46;28.40;43.50
46340;DHT22;47273;49.274;8.708;2022-08-21T17:19:13;28.30;42.70
46340;DHT22;47273;49.274;8.708;2022-08-21T17:21:39;28.30;42.70
46340;DHT22;47273;49.274;8.708;2022-08-21T17:24:05;28.20;42.90
46340;DHT22;47273;49.274;8.708;2022-08-21T17:26:31;28.10;43.50
46340;DHT22;47273;49.274;8.708;2022-08-21T17:28:57;28.00;44.40
46340;DHT22;47273;49.274;8.708;2022-08-21T17:31:23;28.00;44.30
46340;DHT22;47273;49.274;8.708;2022-08-21T17:33:52;27.90;44.10
46340;DHT22;47273;49.274;8.708;2022-08-21T17:36:19;27.80;44.20
46340;DHT22;47273;49.274;8.708;2022-08-21T17:38:45;27.80;44.40
46340;DHT22;47273;49.274;8.708;2022-08-21T17:41:11;27.70;44.70
46340;DHT22;47273;49.274;8.708;2022-08-21T17:43:38;27.50;44.80
46340;DHT22;47273;49.274;8.708;2022-08-21T17:46:05;27.40;45.00
46340;DHT22;47273;49.274;8.708;2022-08-21T17:48:31;27.30;45.30
46340;DHT22;47273;49.274;8.708;2022-08-21T17:50:57;27.20;45.40
46340;DHT22;47273;49.274;8.708;2022-08-21T17:53:23;27.10;46.00
46340;DHT22;47273;49.274;8.708;2022-08-21T17:55:50;27.00;46.10
46340;DHT22;47273;49.274;8.708;2022-08-21T17:58:16;26.90;46.00
46340;DHT22;47273;49.274;8.708;2022-08-21T18:00:43;26.80;46.90
46340;DHT22;47273;49.274;8.708;2022-08-21T18:03:15;26.70;47.40
46340;DHT22;47273;49.274;8.708;2022-08-21T18:05:42;26.50;47.90
46340;DHT22;47273;49.274;8.708;2022-08-21T18:08:10;26.40;49.00
46340;DHT22;47273;49.274;8.708;2022-08-21T18:10:38;26.30;49.10
46340;DHT22;47273;49.274;8.708;2022-08-21T18:13:07;26.20;48.90
46340;DHT22;47273;49.274;8.708;2022-08-21T18:15:35;26.20;48.40
46340;DHT22;47273;49.274;8.708;2022-08-21T18:18:01;26.00;52.60
46340;DHT22;47273;49.274;8.708;2022-08-21T18:20:27;25.90;53.40
46340;DHT22;47273;49.274;8.708;2022-08-21T18:22:53;25.80;53.10
46340;DHT22;47273;49.274;8.708;2022-08-21T18:25:19;25.60;53.30
46340;DHT22;47273;49.274;8.708;2022-08-21T18:27:48;25.40;54.10
46340;DHT22;47273;49.274;8.708;2022-08-21T18:30:18;25.30;52.20
46340;DHT22;47273;49.274;8.708;2022-08-21T18:32:44;25.20;53.50
46340;DHT22;47273;49.274;8.708;2022-08-21T18:35:11;25.00;55.00
46340;DHT22;47273;49.274;8.708;2022-08-21T18:37:37;24.90;53.90
46340;DHT22;47273;49.274;8.708;2022-08-21T18:40:05;24.80;54.70
46340;DHT22;47273;49.274;8.708;2022-08-21T18:42:41;24.70;54.20
46340;DHT22;47273;49.274;8.708;2022-08-21T18:45:10;24.60;54.40
46340;DHT22;47273;49.274;8.708;2022-08-21T18:47:43;24.40;55.70
46340;DHT22;47273;49.274;8.708;2022-08-21T18:50:11;24.40;54.50
46340;DHT22;47273;49.274;8.708;2022-08-21T18:52:38;24.40;54.40
46340;DHT22;47273;49.274;8.708;2022-08-21T18:55:05;24.30;54.60
46340;DHT22;47273;49.274;8.708;2022-08-21T18:57:31;24.30;54.40
46340;DHT22;47273;49.274;8.708;2022-08-21T18:59:58;24.20;56.10
46340;DHT22;47273;49.274;8.708;2022-08-21T19:02:24;24.00;56.90
46340;DHT22;47273;49.274;8.708;2022-08-21T19:04:50;23.90;55.70
46340;DHT22;47273;49.274;8.708;2022-08-21T19:07:16;23.80;56.30
46340;DHT22;47273;49.274;8.708;2022-08-21T19:09:44;23.70;56.40
46340;DHT22;47273;49.274;8.708;2022-08-21T19:12:16;23.50;57.50
46340;DHT22;47273;49.274;8.708;2022-08-21T19:14:43;23.40;57.20
46340;DHT22;47273;49.274;8.708;2022-08-21T19:17:08;23.20;57.00
46340;DHT22;47273;49.274;8.708;2022-08-21T19:19:36;23.30;58.00
46340;DHT22;47273;49.274;8.708;2022-08-21T19:22:02;23.10;58.60
46340;DHT22;47273;49.274;8.708;2022-08-21T19:24:28;23.10;59.00
46340;DHT22;47273;49.274;8.708;2022-08-21T19:26:54;23.00;59.80
46340;DHT22;47273;49.274;8.708;2022-08-21T19:29:20;22.90;59.20
46340;DHT22;47273;49.274;8.708;2022-08-21T19:31:46;22.90;60.40
46340;DHT22;47273;49.274;8.708;2022-08-21T19:34:19;22.90;59.80
46340;DHT22;47273;49.274;8.708;2022-08-21T19:36:46;22.80;59.80
46340;DHT22;47273;49.274;8.708;2022-08-21T19:39:12;22.70;59.60
46340;DHT22;47273;49.274;8.708;2022-08-21T19:41:40;22.60;60.80
46340;DHT22;47273;49.274;8.708;2022-08-21T19:44:09;22.50;60.90
46340;DHT22;47273;49.274;8.708;2022-08-21T19:46:40;22.50;60.40
46340;DHT22;47273;49.274;8.708;2022-08-21T19:49:07;22.40;60.20
46340;DHT22;47273;49.274;8.708;2022-08-21T19:51:50;22.50;59.20
46340;DHT22;47273;49.274;8.708;2022-08-21T19:54:27;22.50;59.20
46340;DHT22;47273;49.274;8.708;2022-08-21T19:56:56;22.40;59.50
46340;DHT22;47273;49.274;8.708;2022-08-21T19:59:23;22.20;59.40
46340;DHT22;47273;49.274;8.708;2022-08-21T20:01:50;22.10;60.70
46340;DHT22;47273;49.274;8.708;2022-08-21T20:04:16;22.10;60.40
46340;DHT22;47273;49.274;8.708;2022-08-21T20:06:42;22.00;60.20
46340;DHT22;47273;49.274;8.708;2022-08-21T20:09:08;22.00;60.20
46340;DHT22;47273;49.274;8.708;2022-08-21T20:11:43;21.90;60.20
46340;DHT22;47273;49.274;8.708;2022-08-21T20:14:11;21.90;59.90
46340;DHT22;47273;49.274;8.708;2022-08-21T20:16:39;21.90;59.40
46340;DHT22;47273;49.274;8.708;2022-08-21T20:19:05;21.90;59.20
46340;DHT22;47273;49.274;8.708;2022-08-21T20:21:32;21.80;59.50
46340;DHT22;47273;49.274;8.708;2022-08-21T20:23:59;21.70;60.20
46340;DHT22;47273;49.274;8.708;2022-08-21T20:26:27;21.70;60.40
46340;DHT22;47273;49.274;8.708;2022-08-21T20:28:53;21.60;60.90
46340;DHT22;47273;49.274;8.708;2022-08-21T20:31:20;21.60;60.40
46340;DHT22;47273;49.274;8.708;2022-08-21T20:33:47;21.50;60.20
46340;DHT22;47273;49.274;8.708;2022-08-21T20:36:13;21.40;60.30
46340;DHT22;47273;49.274;8.708;2022-08-21T20:38:39;21.40;60.70
46340;DHT22;47273;49.274;8.708;2022-08-21T20:41:05;21.40;60.60
46340;DHT22;47273;49.274;8.708;2022-08-21T20:43:34;21.30;60.80
46340;DHT22;47273;49.274;8.708;2022-08-21T20:46:01;21.20;61.40
46340;DHT22;47273;49.274;8.708;2022-08-21T20:48:33;21.20;61.50